Time;durP1;ratioP1;P1;durP2;ratioP2;P2;SDS_P1;SDS_P2;PMS_P1;PMS_P2;Temp;Humidity;BMP_temperature;BMP_pressure;BME280_temperature;BME280_humidity;BME280_pressure;Samples;Min_cycle;Max_cycle;Signal;HPM_P1;HPM_P2
2021/07/07 00:04:12;;;;;;;4.47;4.07;;;;;;;0.01;0.00;59042.03;10315946;28;20052;-59
2021/07/07 00:09:11;;;;;;;7.03;4.20;;;;;;;0.01;0.00;59042.03;10314967;28;20044;-59
2021/07/07 00:14:09;;;;;;;6.55;4.70;;;;;;;0.01;0.00;59042.03;10314402;28;20072;-59
2021/07/07 00:19:08;;;;;;;5.50;4.13;;;;;;;0.01;0.00;59042.03;10297428;28;20047;-58
2021/07/07 00:24:09;;;;;;;5.80;4.43;;;;;;;0.01;0.00;59042.03;10315040;28;20045;-59
2021/07/07 00:29:08;;;;;;;7.28;4.10;;;;;;;0.01;0.00;59042.03;10314305;28;20045;-59
2021/07/07 00:34:07;;;;;;;5.88;4.18;;;;;;;0.01;0.00;59042.03;10314832;28;20087;-59
2021/07/07 00:39:05;;;;;;;5.85;4.63;;;;;;;0.01;0.00;59042.03;10314990;28;20045;-59
2021/07/07 00:44:05;;;;;;;6.75;4.55;;;;;;;0.01;0.00;59042.03;10315247;28;20057;-59
2021/07/07 00:49:05;;;;;;;5.28;4.65;;;;;;;0.01;0.00;59042.03;10314810;28;20067;-58
2021/07/07 00:54:06;;;;;;;5.32;4.50;;;;;;;0.01;0.00;59042.03;10314738;28;20083;-59
2021/07/07 00:59:08;;;;;;;4.65;4.25;;;;;;;0.01;0.00;59042.03;10314528;28;20084;-60
2021/07/07 01:04:07;;;;;;;4.97;4.57;;;;;;;0.01;0.00;59042.03;10322110;28;20049;-59
2021/07/07 01:09:06;;;;;;;4.80;4.38;;;;;;;0.01;0.00;59042.03;10322657;28;20040;-59
2021/07/07 01:14:06;;;;;;;5.30;4.05;;;;;;;0.01;0.00;59042.03;10321922;28;20425;-58
2021/07/07 01:19:05;;;;;;;5.10;4.60;;;;;;;0.01;0.00;59042.03;10322204;28;20079;-59
2021/07/07 01:24:06;;;;;;;7.32;4.10;;;;;;;0.01;0.00;59042.03;10321829;28;20040;-59
2021/07/07 01:29:04;;;;;;;7.63;4.95;;;;;;;0.01;0.00;59042.03;10321102;28;20048;-59
2021/07/07 01:34:04;;;;;;;7.75;5.22;;;;;;;0.01;0.00;59042.03;10321867;28;20071;-58
2021/07/07 01:39:06;;;;;;;7.13;4.45;;;;;;;0.01;0.00;59042.03;10321201;28;20052;-59
2021/07/07 01:44:05;;;;;;;7.00;5.13;;;;;;;0.01;0.00;59042.03;10320765;28;20151;-59
2021/07/07 01:49:04;;;;;;;4.97;4.47;;;;;;;0.01;0.00;59042.03;10320911;28;20394;-58
2021/07/07 01:54:05;;;;;;;5.78;5.22;;;;;;;0.01;0.00;59042.03;10320661;28;20080;-58
2021/07/07 01:59:05;;;;;;;5.32;4.68;;;;;;;0.01;0.00;59042.03;10320277;28;20060;-59
2021/07/07 02:04:04;;;;;;;7.72;5.50;;;;;;;0.01;0.00;59042.03;10320211;28;20052;-59
2021/07/07 02:09:06;;;;;;;7.55;5.72;;;;;;;0.01;0.00;59042.03;10319960;28;20040;-59
2021/07/07 02:14:05;;;;;;;9.23;7.88;;;;;;;0.01;0.00;59042.03;10319490;28;20083;-56
2021/07/07 02:19:04;;;;;;;7.38;6.07;;;;;;;0.01;0.00;59042.03;10320277;28;20072;-57
2021/07/07 02:24:06;;;;;;;8.32;5.40;;;;;;;0.01;0.00;59042.03;10318298;28;20437;-51
2021/07/07 02:29:05;;;;;;;7.75;5.18;;;;;;;0.01;0.00;59042.03;10319183;28;20512;-57
2021/07/07 02:34:04;;;;;;;6.25;5.20;;;;;;;0.01;0.00;59042.03;10318386;28;20084;-57
2021/07/07 02:39:03;;;;;;;7.07;5.10;;;;;;;0.01;0.00;59042.03;10318546;28;20044;-56
2021/07/07 02:44:03;;;;;;;7.97;5.63;;;;;;;0.01;0.00;59042.03;10317815;28;20080;-56
2021/07/07 02:49:02;;;;;;;11.20;6.03;;;;;;;0.01;0.00;59042.03;10319090;28;20041;-52
2021/07/07 02:54:01;;;;;;;11.05;5.78;;;;;;;0.01;0.00;59042.03;10317948;28;20044;-56
2021/07/07 02:59:00;;;;;;;9.23;5.60;;;;;;;0.01;0.00;59042.03;10317869;28;20649;-57
2021/07/07 03:04:00;;;;;;;7.85;6.10;;;;;;;0.01;0.00;59042.03;10315831;28;20053;-57
2021/07/07 03:09:01;;;;;;;8.55;6.07;;;;;;;0.01;0.00;59042.03;10315406;28;20082;-57
2021/07/07 03:13:59;;;;;;;7.07;5.47;;;;;;;0.01;0.00;59042.03;10313594;28;20095;-57
2021/07/07 03:19:00;;;;;;;7.30;5.63;;;;;;;0.01;0.00;59042.03;10315736;28;20079;-57
2021/07/07 03:23:58;;;;;;;9.90;6.05;;;;;;;0.01;0.00;59042.03;10313471;28;20060;-57
2021/07/07 03:28:57;;;;;;;9.25;6.95;;;;;;;0.01;0.00;59042.03;10315698;28;20418;-58
2021/07/07 03:33:56;;;;;;;9.23;7.10;;;;;;;0.01;0.00;59042.03;10312152;28;20072;-51
2021/07/07 03:38:56;;;;;;;8.25;6.57;;;;;;;0.01;0.00;59042.03;10310771;28;20068;-57
2021/07/07 03:43:55;;;;;;;7.97;7.22;;;;;;;0.01;0.00;59042.03;10312139;28;20480;-58
2021/07/07 03:48:54;;;;;;;10.43;7.18;;;;;;;0.01;0.00;59042.03;10314227;28;20494;-58
2021/07/07 03:53:53;;;;;;;10.48;9.38;;;;;;;0.01;0.00;59042.03;10314457;28;20067;-58
2021/07/07 03:58:53;;;;;;;11.20;9.57;;;;;;;0.01;0.00;59042.03;10314322;28;20040;-57
2021/07/07 04:03:51;;;;;;;8.50;7.70;;;;;;;0.01;0.00;59042.03;10314373;28;20533;-57
2021/07/07 04:08:50;;;;;;;11.15;10.05;;;;;;;0.01;0.00;59042.03;10313952;28;20514;-58
2021/07/07 04:13:49;;;;;;;7.78;7.00;;;;;;;0.01;0.00;59042.03;10314342;28;20040;-58
2021/07/07 04:18:49;;;;;;;9.73;8.70;;;;;;;0.01;0.00;59042.03;10313334;28;20044;-58
2021/07/07 04:23:48;;;;;;;8.73;7.95;;;;;;;0.01;0.00;59042.03;10314548;28;20045;-56
2021/07/07 04:28:46;;;;;;;11.68;9.77;;;;;;;0.01;0.00;59042.03;10312935;28;20056;-58
2021/07/07 04:33:45;;;;;;;9.38;8.43;;;;;;;0.01;0.00;59042.03;10313006;28;20075;-57
2021/07/07 04:38:45;;;;;;;10.45;9.20;;;;;;;0.01;0.00;59042.03;10317779;28;20091;-57
2021/07/07 04:43:44;;;;;;;14.25;10.57;;;;;;;0.01;0.00;59042.03;10317477;28;20529;-58
2021/07/07 04:48:43;;;;;;;17.70;12.60;;;;;;;0.01;0.00;59042.03;10318430;28;20068;-58
2021/07/07 04:53:42;;;;;;;14.82;10.48;;;;;;;0.01;0.00;59042.03;10321507;28;20048;-57
2021/07/07 04:58:42;;;;;;;14.68;10.10;;;;;;;0.01;0.00;59042.03;10321553;28;20127;-57
2021/07/07 05:03:41;;;;;;;10.60;9.65;;;;;;;0.01;0.00;59042.03;10320946;28;20040;-56
2021/07/07 05:08:40;;;;;;;12.65;9.50;;;;;;;0.01;0.00;59042.03;10320678;28;20087;-57
2021/07/07 05:13:39;;;;;;;10.48;8.85;;;;;;;0.01;0.00;59042.03;10320741;28;20041;-57
2021/07/07 05:18:39;;;;;;;8.65;7.70;;;;;;;0.01;0.00;59042.03;10319248;28;20080;-57
2021/07/07 05:23:38;;;;;;;11.95;8.60;;;;;;;0.01;0.00;59042.03;10319999;28;20094;-57
2021/07/07 05:28:37;;;;;;;10.70;8.35;;;;;;;0.01;0.00;59042.03;10319734;28;20052;-57
2021/07/07 05:33:36;;;;;;;19.10;8.60;;;;;;;0.01;0.00;59042.03;10320096;28;20048;-57
2021/07/07 05:38:38;;;;;;;9.65;8.68;;;;;;;0.01;0.00;59042.03;10319820;28;20114;-57
2021/07/07 05:43:37;;;;;;;11.50;9.35;;;;;;;0.01;0.00;59042.03;10319395;28;20055;-57
2021/07/07 05:48:35;;;;;;;12.15;9.32;;;;;;;0.01;0.00;59042.03;10318278;28;20060;-57
2021/07/07 05:53:34;;;;;;;10.88;9.20;;;;;;;0.01;0.00;59042.03;10318548;28;20049;-57
2021/07/07 05:58:34;;;;;;;14.90;10.45;;;;;;;0.01;0.00;59042.03;10318542;28;20095;-58
2021/07/07 06:03:33;;;;;;;11.75;10.65;;;;;;;0.01;0.00;59042.03;10318306;28;20525;-57
2021/07/07 06:08:32;;;;;;;12.90;10.55;;;;;;;0.01;0.00;59042.03;10318601;28;20501;-57
2021/07/07 06:13:31;;;;;;;15.70;12.30;;;;;;;0.01;0.00;59042.03;10318236;28;20082;-58
2021/07/07 06:18:32;;;;;;;13.63;11.13;;;;;;;0.01;0.00;59042.03;10317744;28;20087;-57
2021/07/07 06:23:31;;;;;;;13.45;12.00;;;;;;;0.01;0.00;59042.03;10317071;28;20494;-58
2021/07/07 06:28:30;;;;;;;13.55;11.35;;;;;;;0.01;0.00;59042.03;10318292;28;20417;-57
2021/07/07 06:33:29;;;;;;;18.70;12.13;;;;;;;0.01;0.00;59042.03;10317308;28;20494;-57
2021/07/07 06:38:29;;;;;;;15.55;11.20;;;;;;;0.01;0.00;59042.03;10317966;28;20868;-57
2021/07/07 06:43:27;;;;;;;14.48;11.35;;;;;;;0.01;0.00;59042.03;10317259;28;20303;-57
2021/07/07 06:48:26;;;;;;;18.38;13.20;;;;;;;0.01;0.00;59042.03;10316264;28;20128;-57
2021/07/07 06:53:25;;;;;;;12.45;10.18;;;;;;;0.01;0.00;59042.03;10316758;28;20382;-57
2021/07/07 06:58:25;;;;;;;12.98;10.93;;;;;;;0.01;0.00;59042.03;10315218;28;20102;-58
2021/07/07 07:03:26;;;;;;;13.50;10.48;;;;;;;0.01;0.00;59042.03;10315850;28;20060;-57
2021/07/07 07:08:25;;;;;;;15.27;9.98;;;;;;;0.01;0.00;59042.03;10316031;28;20072;-57
2021/07/07 07:13:25;;;;;;;20.25;10.38;;;;;;;0.01;0.00;59042.03;10316575;28;20032;-57
2021/07/07 07:18:24;;;;;;;12.75;9.00;;;;;;;0.01;0.00;59042.03;10316120;28;20051;-57
2021/07/07 07:23:27;;;;;;;;;;;;;;;0.01;0.00;59042.03;10315470;28;20094;-57
2021/07/07 07:28:27;;;;;;;10.85;9.13;;;;;;;0.01;0.00;59042.03;10297834;28;20393;-58
2021/07/07 07:33:27;;;;;;;17.25;8.68;;;;;;;0.01;0.00;59042.03;10315490;28;20520;-57
2021/07/07 07:38:31;;;;;;;10.98;8.02;;;;;;;0.01;0.00;59042.03;10314990;28;20080;-58
2021/07/07 07:43:31;;;;;;;;;;;;;;;0.01;0.00;59042.03;10314457;28;20049;-57
2021/07/07 07:48:29;;;;;;;8.20;7.43;;;;;;;0.01;0.00;59042.03;10315119;28;19925;-58
2021/07/07 07:53:28;;;;;;;10.32;7.95;;;;;;;0.01;0.00;59042.03;10314060;28;20072;-57
2021/07/07 07:58:27;;;;;;;9.57;8.05;;;;;;;0.01;0.00;59042.03;10314298;28;20075;-57
2021/07/07 08:03:27;;;;;;;10.52;9.13;;;;;;;0.01;0.00;59042.03;10314149;28;20056;-57
2021/07/07 08:08:26;;;;;;;10.55;7.20;;;;;;;0.01;0.00;59042.03;10295460;28;20053;-57
2021/07/07 08:13:25;;;;;;;7.78;6.97;;;;;;;0.01;0.00;59042.03;10314706;28;20072;-58
2021/07/07 08:18:23;;;;;;;10.18;8.77;;;;;;;0.01;0.00;59042.03;10314239;28;20087;-57
2021/07/07 08:23:24;;;;;;;13.38;9.20;;;;;;;0.01;0.00;59042.03;10313035;28;20068;-55
2021/07/07 08:28:23;;;;;;;10.57;9.55;;;;;;;0.01;0.00;59042.03;10313926;28;20091;-57
2021/07/07 08:33:22;;;;;;;9.57;8.68;;;;;;;0.01;0.00;59042.03;10314130;28;20064;-58
2021/07/07 08:38:21;;;;;;;8.18;7.47;;;;;;;0.01;0.00;59042.03;10313457;28;20080;-58
2021/07/07 08:43:23;;;;;;;15.65;8.35;;;;;;;0.01;0.00;59042.03;10312283;28;20068;-58
2021/07/07 08:48:22;;;;;;;13.07;7.13;;;;;;;0.01;0.00;59042.03;10313781;28;20071;-58
2021/07/07 08:53:21;;;;;;;7.80;7.05;;;;;;;0.01;0.00;59042.03;10314121;28;20045;-57
2021/07/07 08:58:21;;;;;;;14.57;8.52;;;;;;;0.01;0.00;59042.03;10313448;28;20080;-57
2021/07/07 09:03:20;;;;;;;9.57;7.95;;;;;;;0.01;0.00;59042.03;10313875;28;20047;-57
2021/07/07 09:08:24;;;;;;;9.35;6.65;;;;;;;0.01;0.00;59042.03;10295706;28;20405;-58
2021/07/07 09:13:24;;;;;;;;;;;;;;;0.01;0.00;59042.03;10312574;28;20079;-57
2021/07/07 09:18:33;;;;;;;9.45;6.68;;;;;;;0.01;0.00;59042.03;10312433;28;19967;-57
2021/07/07 09:23:32;;;;;;;13.50;6.88;;;;;;;0.01;0.00;59042.03;10317545;28;20469;-57
2021/07/07 09:28:35;;;;;;;8.75;7.13;;;;;;;0.01;0.00;59042.03;10320518;28;20037;-58
2021/07/07 09:33:39;;;;;;;12.38;7.05;;;;;;;0.01;0.00;59042.03;10319680;28;20080;-57
2021/07/07 09:38:39;;;;;;;10.23;7.05;;;;;;;0.01;0.00;59042.03;10319802;28;20072;-57
2021/07/07 09:43:47;;;;;;;8.35;7.47;;;;;;;0.01;0.00;59042.03;10320043;28;20399;-57
2021/07/07 09:48:47;;;;;;;8.65;7.40;;;;;;;0.01;0.00;59042.03;10319706;28;20044;-57
2021/07/07 09:53:46;;;;;;;8.32;7.57;;;;;;;0.01;0.00;59042.03;10319364;28;20072;-58
2021/07/07 09:58:46;;;;;;;11.70;7.55;;;;;;;0.01;0.00;59042.03;10319242;28;20080;-57
2021/07/07 10:03:46;;;;;;;10.25;7.95;;;;;;;0.01;0.00;59042.03;10319324;28;20068;-57
2021/07/07 10:08:46;;;;;;;8.13;7.40;;;;;;;0.01;0.00;59042.03;10318673;28;20044;-56
2021/07/07 10:13:47;;;;;;;12.82;8.40;;;;;;;0.01;0.00;59042.03;10318818;28;20048;-57
2021/07/07 10:18:46;;;;;;;9.05;7.25;;;;;;;0.01;0.00;59042.03;10318400;28;20080;-56
2021/07/07 10:23:47;;;;;;;14.88;7.85;;;;;;;0.01;0.00;59042.03;10318077;28;20072;-58
2021/07/07 10:28:48;;;;;;;10.52;6.03;;;;;;;0.01;0.00;59042.03;10317565;28;20051;-57
2021/07/07 10:33:46;;;;;;;7.60;6.78;;;;;;;0.01;0.00;59042.03;10317881;28;20536;-57
2021/07/07 10:38:54;;;;;;;8.35;6.43;;;;;;;0.01;0.00;59042.03;10314981;28;20087;-56
2021/07/07 10:43:54;;;;;;;8.60;7.13;;;;;;;0.01;0.00;59042.03;10315297;28;20083;-58
2021/07/07 10:49:19;;;;;;;9.18;6.13;;;;;;;0.01;0.00;59042.03;10298845;28;20060;-58
2021/07/07 10:54:21;;;;;;;7.13;6.43;;;;;;;0.01;0.00;59042.03;10317900;28;20056;-58
2021/07/07 10:59:34;;;;;;;9.57;5.88;;;;;;;0.01;0.00;59042.03;10316601;28;20088;-57
2021/07/07 11:04:38;;;;;;;7.00;6.30;;;;;;;0.01;0.00;59042.03;10316193;28;20498;-57
2021/07/07 11:09:38;;;;;;;6.15;5.53;;;;;;;0.01;0.00;59042.03;10314684;28;20053;-57
2021/07/07 11:14:38;;;;;;;9.45;6.50;;;;;;;0.01;0.00;59042.03;10316787;28;20083;-57
2021/07/07 11:19:43;;;;;;;7.38;6.40;;;;;;;0.01;0.00;59042.03;10315857;28;20076;-56
2021/07/07 11:24:49;;;;;;;11.60;7.57;;;;;;;0.01;0.00;59042.03;10315393;28;20052;-57
2021/07/07 11:29:50;;;;;;;10.30;6.70;;;;;;;0.01;0.00;59042.03;10315726;28;20570;-57
2021/07/07 11:35:12;;;;;;;8.20;5.90;;;;;;;0.01;0.00;59042.03;10314671;28;20072;-56
2021/07/07 11:40:14;;;;;;;9.30;6.73;;;;;;;0.01;0.00;59042.03;10315539;28;20068;-57
2021/07/07 11:45:14;;;;;;;6.60;5.97;;;;;;;0.01;0.00;59042.03;10314658;28;20099;-57
2021/07/07 11:50:13;;;;;;;5.97;5.43;;;;;;;0.01;0.00;59042.03;10314953;28;20084;-58
2021/07/07 11:55:12;;;;;;;7.28;6.57;;;;;;;0.01;0.00;59042.03;10315551;28;20272;-58
2021/07/07 12:00:11;;;;;;;7.75;6.85;;;;;;;0.01;0.00;59042.03;10315452;28;20075;-58
2021/07/07 12:05:13;;;;;;;13.45;8.18;;;;;;;0.01;0.00;59042.03;10315632;28;20462;-58
2021/07/07 12:10:27;;;;;;;9.63;6.80;;;;;;;0.01;0.00;59042.03;10314615;28;20088;-56
2021/07/07 12:15:26;;;;;;;9.68;6.93;;;;;;;0.01;0.00;59042.03;10313065;28;20064;-57
2021/07/07 12:20:33;;;;;;;6.85;5.82;;;;;;;0.01;0.00;59042.03;10305753;28;20076;-57
2021/07/07 12:25:32;;;;;;;9.23;5.75;;;;;;;0.01;0.00;59042.03;10310263;28;20068;-58
2021/07/07 12:30:31;;;;;;;7.30;6.60;;;;;;;0.01;0.00;59042.03;10309714;28;20072;-58
2021/07/07 12:35:31;;;;;;;6.30;5.68;;;;;;;0.01;0.00;59042.03;10312320;28;20465;-58
2021/07/07 12:40:30;;;;;;;8.07;5.90;;;;;;;0.01;0.00;59042.03;10315000;28;20076;-58
2021/07/07 12:45:34;;;;;;;13.07;6.15;;;;;;;0.01;0.00;59042.03;10314109;28;20064;-58
2021/07/07 12:50:37;;;;;;;7.93;6.40;;;;;;;0.01;0.00;59042.03;10313795;28;20072;-58
2021/07/07 12:55:36;;;;;;;5.95;5.05;;;;;;;0.01;0.00;59042.03;10315100;28;20185;-58
2021/07/07 13:00:43;;;;;;;10.43;5.55;;;;;;;0.01;0.00;59042.03;10322425;28;20079;-58
2021/07/07 13:05:47;;;;;;;6.15;5.30;;;;;;;0.01;0.00;59042.03;10322021;28;20040;-58
2021/07/07 13:10:50;;;;;;;13.90;6.18;;;;;;;0.01;0.00;59042.03;10321866;28;20068;-58
2021/07/07 13:16:04;;;;;;;5.40;4.90;;;;;;;0.01;0.00;59042.03;10321098;28;20474;-57
2021/07/07 13:21:06;;;;;;;7.75;5.53;;;;;;;0.01;0.00;59042.03;10321218;28;20086;-59
2021/07/07 13:26:22;;;;;;;10.98;5.07;;;;;;;0.01;0.00;59042.03;10320932;28;20056;-58
2021/07/07 13:31:21;;;;;;;6.78;5.20;;;;;;;0.01;0.00;59042.03;10321398;28;20041;-58
2021/07/07 13:36:21;;;;;;;5.30;4.60;;;;;;;0.01;0.00;59042.03;10320028;28;20486;-57
2021/07/07 13:41:20;;;;;;;5.70;4.22;;;;;;;0.01;0.00;59042.03;10320131;28;20079;-58
2021/07/07 13:46:19;;;;;;;7.28;4.95;;;;;;;0.01;0.00;59042.03;10319736;28;20147;-58
2021/07/07 13:51:18;;;;;;;6.03;4.72;;;;;;;0.01;0.00;59042.03;10318965;28;20049;-58
2021/07/07 13:56:18;;;;;;;7.15;4.85;;;;;;;0.01;0.00;59042.03;10319150;28;20501;-58
2021/07/07 14:01:17;;;;;;;6.43;3.63;;;;;;;0.01;0.00;59042.03;10319538;28;20049;-56
2021/07/07 14:06:16;;;;;;;8.45;4.20;;;;;;;0.01;0.00;59042.03;10319285;28;20068;-58
2021/07/07 14:11:15;;;;;;;6.95;4.07;;;;;;;0.01;0.00;59042.03;10319612;28;20052;-58
2021/07/07 14:16:15;;;;;;;10.32;4.68;;;;;;;0.01;0.00;59042.03;10318760;28;20522;-58
2021/07/07 14:21:14;;;;;;;4.97;3.95;;;;;;;0.01;0.00;59042.03;10319437;28;20478;-58
2021/07/07 14:26:13;;;;;;;5.72;4.13;;;;;;;0.01;0.00;59042.03;10318418;28;20044;-58
2021/07/07 14:31:12;;;;;;;9.02;4.15;;;;;;;0.01;0.00;59042.03;10318596;28;20056;-58
2021/07/07 14:36:12;;;;;;;4.95;4.18;;;;;;;0.01;0.00;59042.03;10318976;28;20079;-58
2021/07/07 14:41:11;;;;;;;8.55;4.30;;;;;;;0.01;0.00;59042.03;10318500;28;20072;-58
2021/07/07 14:46:10;;;;;;;8.60;3.30;;;;;;;0.01;0.00;59042.03;10317332;28;20302;-56
2021/07/07 14:51:08;;;;;;;6.72;4.15;;;;;;;0.01;0.00;59042.03;10318014;28;20037;-59
2021/07/07 14:56:08;;;;;;;6.55;4.20;;;;;;;0.01;0.00;59042.03;10314316;28;20075;-56
2021/07/07 15:01:07;;;;;;;5.50;4.03;;;;;;;0.01;0.00;59042.03;10308310;28;20494;-54
2021/07/07 15:06:06;;;;;;;7.13;3.83;;;;;;;0.01;0.00;59042.03;10294556;28;20049;-57
2021/07/07 15:11:05;;;;;;;10.15;4.07;;;;;;;0.01;0.00;59042.03;10287818;28;20049;-57
2021/07/07 15:16:07;;;;;;;8.70;3.75;;;;;;;0.01;0.00;59042.03;10315946;28;20434;-57
2021/07/07 15:21:06;;;;;;;10.40;4.03;;;;;;;0.01;0.00;59042.03;10315250;28;20344;-57
2021/07/07 15:26:05;;;;;;;4.82;4.32;;;;;;;0.01;0.00;59042.03;10314497;28;20075;-57
2021/07/07 15:31:05;;;;;;;6.47;4.05;;;;;;;0.01;0.00;59042.03;10311803;28;20075;-56
2021/07/07 15:36:05;;;;;;;7.30;3.85;;;;;;;0.01;0.00;59042.03;10312589;28;20506;-57
2021/07/07 15:41:06;;;;;;;6.53;3.40;;;;;;;0.01;0.00;59042.03;10313486;28;20076;-56
2021/07/07 15:46:07;;;;;;;7.38;3.80;;;;;;;0.01;0.00;59042.03;10315492;28;20052;-56
2021/07/07 15:51:08;;;;;;;6.50;4.87;;;;;;;0.01;0.00;59042.03;10315527;28;20080;-57
2021/07/07 15:56:06;;;;;;;8.25;5.20;;;;;;;0.01;0.00;59042.03;10314737;28;20254;-56
2021/07/07 16:01:07;;;;;;;13.40;4.47;;;;;;;0.01;0.00;59042.03;10314822;28;20473;-56
2021/07/07 16:06:06;;;;;;;8.07;3.90;;;;;;;0.01;0.00;59042.03;10315776;28;20045;-57
2021/07/07 16:11:25;;;;;;;4.80;3.30;;;;;;;0.01;0.00;59042.03;10314874;28;20045;-56
2021/07/07 16:16:26;;;;;;;7.18;4.40;;;;;;;0.01;0.00;59042.03;10315313;28;20489;-56
2021/07/07 16:21:25;;;;;;;4.75;4.25;;;;;;;0.01;0.00;59042.03;10314802;28;20145;-56
2021/07/07 16:26:24;;;;;;;8.82;4.13;;;;;;;0.01;0.00;59042.03;10314367;28;20486;-57
2021/07/07 16:31:25;;;;;;;5.65;4.40;;;;;;;0.01;0.00;59042.03;10319402;28;20044;-57
2021/07/07 16:36:25;;;;;;;8.73;4.07;;;;;;;0.01;0.00;59042.03;10322671;28;20413;-58
2021/07/07 16:41:24;;;;;;;8.43;4.47;;;;;;;0.01;0.00;59042.03;10322506;28;20509;-57
2021/07/07 16:46:23;;;;;;;9.43;4.25;;;;;;;0.01;0.00;59042.03;10303438;28;20506;-60
2021/07/07 16:51:22;;;;;;;8.30;4.38;;;;;;;0.01;0.00;59042.03;10322296;28;20178;-59
2021/07/07 16:56:22;;;;;;;17.52;6.15;;;;;;;0.01;0.00;59042.03;10322129;28;20085;-61
2021/07/07 17:01:21;;;;;;;11.20;7.80;;;;;;;0.01;0.00;59042.03;10322215;28;20075;-60
2021/07/07 17:06:20;;;;;;;14.23;7.82;;;;;;;0.01;0.00;59042.03;10321620;28;20082;-59
2021/07/07 17:11:19;;;;;;;11.65;6.18;;;;;;;0.01;0.00;59042.03;10322106;28;20068;-60
2021/07/07 17:16:19;;;;;;;9.60;5.57;;;;;;;0.01;0.00;59042.03;10320711;28;20044;-59
2021/07/07 17:21:18;;;;;;;9.73;7.35;;;;;;;0.01;0.00;59042.03;10321039;28;20619;-59
2021/07/07 17:26:17;;;;;;;7.07;5.32;;;;;;;0.01;0.00;59042.03;10321114;28;20079;-59
2021/07/07 17:31:15;;;;;;;15.25;6.00;;;;;;;0.01;0.00;59042.03;10320280;28;20044;-59
2021/07/07 17:36:16;;;;;;;10.25;5.88;;;;;;;0.01;0.00;59042.03;10320138;28;20068;-59
2021/07/07 17:41:15;;;;;;;12.00;5.28;;;;;;;0.01;0.00;59042.03;10319464;28;20128;-59
2021/07/07 17:46:14;;;;;;;10.23;5.53;;;;;;;0.01;0.00;59042.03;10319789;28;20489;-59
2021/07/07 17:51:13;;;;;;;9.15;5.53;;;;;;;0.01;0.00;59042.03;10320915;28;20040;-59
2021/07/07 17:56:13;;;;;;;15.32;5.10;;;;;;;0.01;0.00;59042.03;10320031;28;20056;-59
2021/07/07 18:01:12;;;;;;;6.95;4.90;;;;;;;0.01;0.00;59042.03;10319364;28;20088;-59
2021/07/07 18:06:11;;;;;;;11.95;5.68;;;;;;;0.01;0.00;59042.03;10319180;28;20072;-59
2021/07/07 18:11:10;;;;;;;12.77;5.28;;;;;;;0.01;0.00;59042.03;10319264;28;20441;-60
2021/07/07 18:16:10;;;;;;;9.00;4.40;;;;;;;0.01;0.00;59042.03;10318638;28;20083;-59
2021/07/07 18:21:09;;;;;;;8.93;5.18;;;;;;;0.01;0.00;59042.03;10319572;28;20079;-59
2021/07/07 18:26:08;;;;;;;17.45;8.30;;;;;;;0.01;0.00;59042.03;10319611;28;20080;-60
2021/07/07 18:31:07;;;;;;;7.60;5.13;;;;;;;0.01;0.00;59042.03;10317697;28;20044;-60
2021/07/07 18:36:08;;;;;;;6.60;4.32;;;;;;;0.01;0.00;59042.03;10317985;28;20076;-60
2021/07/07 18:41:07;;;;;;;7.93;5.25;;;;;;;0.01;0.00;59042.03;10317680;28;20091;-60
2021/07/07 18:46:06;;;;;;;8.30;5.07;;;;;;;0.01;0.00;59042.03;10317551;28;20091;-60
2021/07/07 18:51:05;;;;;;;11.43;5.22;;;;;;;0.01;0.00;59042.03;10317619;28;20048;-59
2021/07/07 18:56:05;;;;;;;7.45;5.78;;;;;;;0.01;0.00;59042.03;10317667;28;20086;-59
2021/07/07 19:01:04;;;;;;;10.80;5.80;;;;;;;0.01;0.00;59042.03;10316997;28;20102;-60
2021/07/07 19:06:04;;;;;;;11.13;6.07;;;;;;;0.01;0.00;59042.03;10316289;28;20072;-59
2021/07/07 19:11:05;;;;;;;11.60;6.68;;;;;;;0.01;0.00;59042.03;10316536;28;20079;-59
2021/07/07 19:16:04;;;;;;;17.73;6.43;;;;;;;0.01;0.00;59042.03;10315956;28;20044;-58
2021/07/07 19:21:04;;;;;;;13.07;5.70;;;;;;;0.01;0.00;59042.03;10315846;28;20532;-59
2021/07/07 19:26:02;;;;;;;13.40;5.30;;;;;;;0.01;0.00;59042.03;10316437;28;20075;-59
2021/07/07 19:31:03;;;;;;;18.08;6.20;;;;;;;0.01;0.00;59042.03;10316098;28;20076;-59
2021/07/07 19:36:02;;;;;;;7.90;6.45;;;;;;;0.01;0.00;59042.03;10316556;28;20067;-60
2021/07/07 19:41:01;;;;;;;13.13;6.35;;;;;;;0.01;0.00;59042.03;10313840;28;20493;-60
2021/07/07 19:46:00;;;;;;;9.45;6.32;;;;;;;0.01;0.00;59042.03;10315282;28;20076;-59
2021/07/07 19:51:00;;;;;;;9.20;5.40;;;;;;;0.01;0.00;59042.03;10315241;28;20040;-60
2021/07/07 19:55:59;;;;;;;6.57;5.28;;;;;;;0.01;0.00;59042.03;10315124;28;20437;-58
2021/07/07 20:00:57;;;;;;;6.03;5.35;;;;;;;0.01;0.00;59042.03;10314695;28;20082;-60
2021/07/07 20:06:09;;;;;;;10.30;6.03;;;;;;;0.01;0.00;59042.03;10313983;28;20049;-60
2021/07/07 20:11:08;;;;;;;10.55;5.15;;;;;;;0.01;0.00;59042.03;10314138;28;20064;-59
2021/07/07 20:16:07;;;;;;;6.85;5.53;;;;;;;0.01;0.00;59042.03;10313703;28;20084;-59
2021/07/07 20:21:06;;;;;;;10.80;6.47;;;;;;;0.01;0.00;59042.03;10314845;28;20499;-60
2021/07/07 20:26:06;;;;;;;11.52;5.63;;;;;;;0.01;0.00;59042.03;10314894;28;20068;-59
2021/07/07 20:31:04;;;;;;;10.98;5.18;;;;;;;0.01;0.00;59042.03;10314741;28;20044;-59
2021/07/07 20:36:04;;;;;;;7.95;6.38;;;;;;;0.01;0.00;59042.03;10315004;28;20041;-59
2021/07/07 20:41:03;;;;;;;9.63;5.78;;;;;;;0.01;0.00;59042.03;10314615;28;20236;-59
2021/07/07 20:46:04;;;;;;;9.18;6.13;;;;;;;0.01;0.00;59042.03;10313670;28;20055;-59
2021/07/07 20:51:03;;;;;;;9.40;5.18;;;;;;;0.01;0.00;59042.03;10313742;28;20433;-58
2021/07/07 20:56:02;;;;;;;11.30;5.57;;;;;;;0.01;0.00;59042.03;10313903;28;20505;-59
2021/07/07 21:01:01;;;;;;;8.23;5.57;;;;;;;0.01;0.00;59042.03;10314033;28;20080;-59
2021/07/07 21:06:01;;;;;;;6.57;5.38;;;;;;;0.01;0.00;59042.03;10313287;28;20083;-58
2021/07/07 21:11:00;;;;;;;7.85;4.80;;;;;;;0.01;0.00;59042.03;10313244;28;20516;-59
2021/07/07 21:15:59;;;;;;;6.20;4.78;;;;;;;0.01;0.00;59042.03;10314216;28;20048;-59
2021/07/07 21:20:57;;;;;;;6.38;4.65;;;;;;;0.01;0.00;59042.03;10321664;28;20060;-59
2021/07/07 21:25:57;;;;;;;5.90;5.25;;;;;;;0.01;0.00;59042.03;10320659;28;20129;-59
2021/07/07 21:30:56;;;;;;;9.02;5.05;;;;;;;0.01;0.00;59042.03;10321222;28;20040;-58
2021/07/07 21:35:55;;;;;;;6.40;4.80;;;;;;;0.01;0.00;59042.03;10319950;28;20051;-59
2021/07/07 21:40:54;;;;;;;9.70;5.45;;;;;;;0.01;0.00;59042.03;10319890;28;20080;-58
2021/07/07 21:45:55;;;;;;;9.23;5.47;;;;;;;0.01;0.00;59042.03;10301255;28;20091;-58
2021/07/07 21:50:53;;;;;;;6.40;5.45;;;;;;;0.01;0.00;59042.03;10319309;28;20417;-59
2021/07/07 21:55:52;;;;;;;8.23;4.78;;;;;;;0.01;0.00;59042.03;10320211;28;20036;-59
2021/07/07 22:00:51;;;;;;;8.73;4.95;;;;;;;0.01;0.00;59042.03;10319985;28;20072;-59
2021/07/07 22:05:51;;;;;;;10.02;5.43;;;;;;;0.01;0.00;59042.03;10319740;28;20075;-59
2021/07/07 22:10:50;;;;;;;6.47;5.53;;;;;;;0.01;0.00;59042.03;10319598;28;20037;-59
2021/07/07 22:15:49;;;;;;;7.07;5.10;;;;;;;0.01;0.00;59042.03;10318499;28;20083;-59
2021/07/07 22:20:49;;;;;;;8.57;4.97;;;;;;;0.01;0.00;59042.03;10318265;28;20081;-59
2021/07/07 22:25:49;;;;;;;5.90;5.20;;;;;;;0.01;0.00;59042.03;10319185;28;20071;-59
2021/07/07 22:30:48;;;;;;;5.43;4.82;;;;;;;0.01;0.00;59042.03;10317331;28;20053;-59
2021/07/07 22:35:47;;;;;;;7.50;5.63;;;;;;;0.01;0.00;59042.03;10317861;28;20508;-59
2021/07/07 22:40:46;;;;;;;8.63;5.38;;;;;;;0.01;0.00;59042.03;10318128;28;20076;-59
2021/07/07 22:45:46;;;;;;;6.93;5.63;;;;;;;0.01;0.00;59042.03;10316407;28;20473;-59
2021/07/07 22:50:49;;;;;;;7.97;6.20;;;;;;;0.01;0.00;59042.03;10316965;28;20051;-59
2021/07/07 22:55:48;;;;;;;6.57;5.83;;;;;;;0.01;0.00;59042.03;10317383;28;20040;-59
2021/07/07 23:00:49;;;;;;;7.82;6.13;;;;;;;0.01;0.00;59042.03;10317140;28;20044;-59
2021/07/07 23:05:48;;;;;;;7.05;5.38;;;;;;;0.01;0.00;59042.03;10316684;28;20072;-59
2021/07/07 23:10:48;;;;;;;7.03;5.75;;;;;;;0.01;0.00;59042.03;10317333;28;20075;-59
2021/07/07 23:15:48;;;;;;;6.57;5.45;;;;;;;0.01;0.00;59042.03;10316497;28;20068;-58
2021/07/07 23:20:47;;;;;;;11.02;6.57;;;;;;;0.01;0.00;59042.03;10316068;28;20060;-58
2021/07/07 23:25:46;;;;;;;7.35;6.47;;;;;;;0.01;0.00;59042.03;10316512;28;20064;-59
2021/07/07 23:30:44;;;;;;;6.53;5.90;;;;;;;0.01;0.00;59042.03;10315551;28;20529;-59
2021/07/07 23:35:45;;;;;;;8.80;5.95;;;;;;;0.01;0.00;59042.03;10316091;28;20060;-58
2021/07/07 23:40:43;;;;;;;8.35;5.72;;;;;;;0.01;0.00;59042.03;10314588;28;20191;-58
2021/07/07 23:45:42;;;;;;;6.97;5.28;;;;;;;0.01;0.00;59042.03;10314445;28;20525;-59